sensor_id;sensor_type;location;lat;lon;timestamp;temperature;humidity
14093;DHT22;7123;49.468;10.992;2023-11-19T00:00:19;6.80;99.90
14093;DHT22;7123;49.468;10.992;2023-11-19T00:02:48;6.90;99.90
14093;DHT22;7123;49.468;10.992;2023-11-19T00:05:16;6.90;99.90
14093;DHT22;7123;49.468;10.992;2023-11-19T00:07:47;6.90;99.90
14093;DHT22;7123;49.468;10.992;2023-11-19T00:10:16;6.90;99.90
14093;DHT22;7123;49.468;10.992;2023-11-19T00:12:48;6.90;99.90
14093;DHT22;7123;49.468;10.992;2023-11-19T00:15:16;6.90;99.90
14093;DHT22;7123;49.468;10.992;2023-11-19T00:17:45;6.90;99.90
14093;DHT22;7123;49.468;10.992;2023-11-19T00:20:15;6.90;99.90
14093;DHT22;7123;49.468;10.992;2023-11-19T00:22:44;6.90;99.90
14093;DHT22;7123;49.468;10.992;2023-11-19T00:25:17;6.90;99.90
14093;DHT22;7123;49.468;10.992;2023-11-19T00:27:44;6.90;99.90
14093;DHT22;7123;49.468;10.992;2023-11-19T00:30:14;6.90;99.90
14093;DHT22;7123;49.468;10.992;2023-11-19T00:32:41;6.90;99.90
14093;DHT22;7123;49.468;10.992;2023-11-19T00:35:08;6.90;99.90
14093;DHT22;7123;49.468;10.992;2023-11-19T00:37:41;6.90;99.90
14093;DHT22;7123;49.468;10.992;2023-11-19T00:40:09;6.90;99.90
14093;DHT22;7123;49.468;10.992;2023-11-19T00:42:39;6.90;99.90
14093;DHT22;7123;49.468;10.992;2023-11-19T00:45:07;6.90;99.90
14093;DHT22;7123;49.468;10.992;2023-11-19T00:47:39;6.90;99.90
14093;DHT22;7123;49.468;10.992;2023-11-19T00:50:07;6.90;99.90
14093;DHT22;7123;49.468;10.992;2023-11-19T00:52:44;6.90;99.90
14093;DHT22;7123;49.468;10.992;2023-11-19T00:55:13;6.90;99.90
14093;DHT22;7123;49.468;10.992;2023-11-19T00:57:40;6.90;99.90
14093;DHT22;7123;49.468;10.992;2023-11-19T01:00:07;6.90;99.90
14093;DHT22;7123;49.468;10.992;2023-11-19T01:02:53;6.90;99.90
14093;DHT22;7123;49.468;10.992;2023-11-19T01:05:21;6.90;99.90
14093;DHT22;7123;49.468;10.992;2023-11-19T01:07:50;6.90;99.90
14093;DHT22;7123;49.468;10.992;2023-11-19T01:10:20;6.90;99.90
14093;DHT22;7123;49.468;10.992;2023-11-19T01:12:47;6.90;99.90
14093;DHT22;7123;49.468;10.992;2023-11-19T01:15:14;6.90;99.90
14093;DHT22;7123;49.468;10.992;2023-11-19T01:17:40;6.90;99.90
14093;DHT22;7123;49.468;10.992;2023-11-19T01:20:18;6.90;99.90
14093;DHT22;7123;49.468;10.992;2023-11-19T01:22:46;6.90;99.90
14093;DHT22;7123;49.468;10.992;2023-11-19T01:25:15;6.90;99.90
14093;DHT22;7123;49.468;10.992;2023-11-19T01:27:42;6.90;99.90
14093;DHT22;7123;49.468;10.992;2023-11-19T01:30:10;7.00;99.90
14093;DHT22;7123;49.468;10.992;2023-11-19T01:32:40;6.90;99.90
14093;DHT22;7123;49.468;10.992;2023-11-19T01:35:07;7.00;99.90
14093;DHT22;7123;49.468;10.992;2023-11-19T01:37:37;7.00;99.90
14093;DHT22;7123;49.468;10.992;2023-11-19T01:40:05;7.00;99.90
14093;DHT22;7123;49.468;10.992;2023-11-19T01:42:39;7.00;99.90
14093;DHT22;7123;49.468;10.992;2023-11-19T01:45:07;7.00;99.90
14093;DHT22;7123;49.468;10.992;2023-11-19T01:47:35;7.00;99.90
14093;DHT22;7123;49.468;10.992;2023-11-19T01:50:04;7.00;99.90
14093;DHT22;7123;49.468;10.992;2023-11-19T01:52:34;7.00;99.90
14093;DHT22;7123;49.468;10.992;2023-11-19T01:55:03;7.00;99.90
14093;DHT22;7123;49.468;10.992;2023-11-19T01:57:31;7.10;99.90
14093;DHT22;7123;49.468;10.992;2023-11-19T01:59:58;7.10;99.90
14093;DHT22;7123;49.468;10.992;2023-11-19T02:02:25;7.00;99.90
14093;DHT22;7123;49.468;10.992;2023-11-19T02:04:53;7.10;99.90
14093;DHT22;7123;49.468;10.992;2023-11-19T02:07:20;7.10;99.90
14093;DHT22;7123;49.468;10.992;2023-11-19T02:09:47;7.00;99.90
14093;DHT22;7123;49.468;10.992;2023-11-19T02:12:14;7.00;99.90
14093;DHT22;7123;49.468;10.992;2023-11-19T02:14:41;7.00;99.90
14093;DHT22;7123;49.468;10.992;2023-11-19T02:17:28;7.00;99.90
14093;DHT22;7123;49.468;10.992;2023-11-19T02:19:55;7.00;99.90
14093;DHT22;7123;49.468;10.992;2023-11-19T02:22:36;7.00;99.90
14093;DHT22;7123;49.468;10.992;2023-11-19T02:25:07;7.10;99.90
14093;DHT22;7123;49.468;10.992;2023-11-19T02:27:58;7.10;99.90
14093;DHT22;7123;49.468;10.992;2023-11-19T02:30:26;7.10;99.90
14093;DHT22;7123;49.468;10.992;2023-11-19T02:32:58;7.10;99.90
14093;DHT22;7123;49.468;10.992;2023-11-19T02:35:27;7.10;99.90
14093;DHT22;7123;49.468;10.992;2023-11-19T02:37:54;7.10;99.90
14093;DHT22;7123;49.468;10.992;2023-11-19T02:40:21;7.10;99.90
14093;DHT22;7123;49.468;10.992;2023-11-19T02:42:54;7.10;99.90
14093;DHT22;7123;49.468;10.992;2023-11-19T02:45:23;7.10;99.90
14093;DHT22;7123;49.468;10.992;2023-11-19T02:47:50;7.10;99.90
14093;DHT22;7123;49.468;10.992;2023-11-19T02:50:18;7.10;99.90
14093;DHT22;7123;49.468;10.992;2023-11-19T02:52:53;7.10;99.90
14093;DHT22;7123;49.468;10.992;2023-11-19T02:55:20;7.20;99.90
14093;DHT22;7123;49.468;10.992;2023-11-19T02:57:47;7.20;99.90
14093;DHT22;7123;49.468;10.992;2023-11-19T03:00:21;7.20;99.90
14093;DHT22;7123;49.468;10.992;2023-11-19T03:03:03;7.20;99.90
14093;DHT22;7123;49.468;10.992;2023-11-19T03:05:46;7.20;99.90
14093;DHT22;7123;49.468;10.992;2023-11-19T03:08:15;7.20;99.90
14093;DHT22;7123;49.468;10.992;2023-11-19T03:10:45;7.20;99.90
14093;DHT22;7123;49.468;10.992;2023-11-19T03:13:12;7.20;99.90
14093;DHT22;7123;49.468;10.992;2023-11-19T03:15:40;7.30;99.90
14093;DHT22;7123;49.468;10.992;2023-11-19T03:18:07;7.20;99.90
14093;DHT22;7123;49.468;10.992;2023-11-19T03:20:34;7.30;99.90
14093;DHT22;7123;49.468;10.992;2023-11-19T03:23:32;7.30;99.90
14093;DHT22;7123;49.468;10.992;2023-11-19T03:25:59;7.30;99.90
14093;DHT22;7123;49.468;10.992;2023-11-19T03:28:29;7.30;99.90
14093;DHT22;7123;49.468;10.992;2023-11-19T03:30:57;7.30;99.90
14093;DHT22;7123;49.468;10.992;2023-11-19T03:33:24;7.20;99.90
14093;DHT22;7123;49.468;10.992;2023-11-19T03:35:56;7.30;99.90
14093;DHT22;7123;49.468;10.992;2023-11-19T03:38:24;7.20;99.90
14093;DHT22;7123;49.468;10.992;2023-11-19T03:40:51;7.20;99.90
14093;DHT22;7123;49.468;10.992;2023-11-19T03:43:18;7.30;99.90
14093;DHT22;7123;49.468;10.992;2023-11-19T03:45:46;7.30;99.90
14093;DHT22;7123;49.468;10.992;2023-11-19T03:48:13;7.20;99.90
14093;DHT22;7123;49.468;10.992;2023-11-19T03:50:43;7.20;99.90
14093;DHT22;7123;49.468;10.992;2023-11-19T03:53:12;7.20;99.90
14093;DHT22;7123;49.468;10.992;2023-11-19T03:55:38;7.10;99.90
14093;DHT22;7123;49.468;10.992;2023-11-19T03:58:05;7.10;99.90
14093;DHT22;7123;49.468;10.992;2023-11-19T04:00:32;7.10;99.90
14093;DHT22;7123;49.468;10.992;2023-11-19T04:02:59;7.00;99.90
14093;DHT22;7123;49.468;10.992;2023-11-19T04:05:26;7.10;99.90
14093;DHT22;7123;49.468;10.992;2023-11-19T04:07:53;7.10;99.90
14093;DHT22;7123;49.468;10.992;2023-11-19T04:10:19;7.10;99.90
14093;DHT22;7123;49.468;10.992;2023-11-19T04:12:47;7.10;99.90
14093;DHT22;7123;49.468;10.992;2023-11-19T04:15:14;7.10;99.90
14093;DHT22;7123;49.468;10.992;2023-11-19T04:17:41;7.10;99.90
14093;DHT22;7123;49.468;10.992;2023-11-19T04:20:07;7.10;99.90
14093;DHT22;7123;49.468;10.992;2023-11-19T04:22:38;7.20;99.90
14093;DHT22;7123;49.468;10.992;2023-11-19T04:25:05;7.10;99.90
14093;DHT22;7123;49.468;10.992;2023-11-19T04:27:32;7.20;99.90
14093;DHT22;7123;49.468;10.992;2023-11-19T04:29:59;7.20;99.90
14093;DHT22;7123;49.468;10.992;2023-11-19T04:32:28;7.20;99.90
14093;DHT22;7123;49.468;10.992;2023-11-19T04:34:55;7.20;99.90
14093;DHT22;7123;49.468;10.992;2023-11-19T04:37:22;7.20;99.90
14093;DHT22;7123;49.468;10.992;2023-11-19T04:39:49;7.20;99.90
14093;DHT22;7123;49.468;10.992;2023-11-19T04:42:16;7.20;99.90
14093;DHT22;7123;49.468;10.992;2023-11-19T04:44:43;7.20;99.90
14093;DHT22;7123;49.468;10.992;2023-11-19T04:47:10;7.30;99.90
14093;DHT22;7123;49.468;10.992;2023-11-19T04:49:40;7.30;99.90
14093;DHT22;7123;49.468;10.992;2023-11-19T04:52:09;7.30;99.90
14093;DHT22;7123;49.468;10.992;2023-11-19T04:54:41;7.40;99.90
14093;DHT22;7123;49.468;10.992;2023-11-19T04:57:08;7.40;99.90
14093;DHT22;7123;49.468;10.992;2023-11-19T04:59:37;7.40;99.90
14093;DHT22;7123;49.468;10.992;2023-11-19T05:02:05;7.50;99.90
14093;DHT22;7123;49.468;10.992;2023-11-19T05:04:31;7.50;99.90
14093;DHT22;7123;49.468;10.992;2023-11-19T05:06:58;7.50;99.90
14093;DHT22;7123;49.468;10.992;2023-11-19T05:09:25;7.60;99.90
14093;DHT22;7123;49.468;10.992;2023-11-19T05:11:52;7.60;99.90
14093;DHT22;7123;49.468;10.992;2023-11-19T05:14:19;7.60;99.90
14093;DHT22;7123;49.468;10.992;2023-11-19T05:16:47;7.60;99.90
14093;DHT22;7123;49.468;10.992;2023-11-19T05:19:14;7.60;99.90
14093;DHT22;7123;49.468;10.992;2023-11-19T05:21:44;7.60;99.90
14093;DHT22;7123;49.468;10.992;2023-11-19T05:24:11;7.60;99.90
14093;DHT22;7123;49.468;10.992;2023-11-19T05:26:41;7.60;99.90
14093;DHT22;7123;49.468;10.992;2023-11-19T05:29:08;7.60;99.90
14093;DHT22;7123;49.468;10.992;2023-11-19T05:31:34;7.60;99.90
14093;DHT22;7123;49.468;10.992;2023-11-19T05:34:03;7.60;99.90
14093;DHT22;7123;49.468;10.992;2023-11-19T05:36:31;7.60;99.90
14093;DHT22;7123;49.468;10.992;2023-11-19T05:38:58;7.60;99.90
14093;DHT22;7123;49.468;10.992;2023-11-19T05:41:25;7.60;99.90
14093;DHT22;7123;49.468;10.992;2023-11-19T05:43:52;7.50;99.90
14093;DHT22;7123;49.468;10.992;2023-11-19T05:46:18;7.50;99.90
14093;DHT22;7123;49.468;10.992;2023-11-19T05:48:47;7.50;99.90
14093;DHT22;7123;49.468;10.992;2023-11-19T05:51:14;7.50;99.90
14093;DHT22;7123;49.468;10.992;2023-11-19T05:53:44;7.60;99.90
14093;DHT22;7123;49.468;10.992;2023-11-19T05:56:12;7.60;99.90
14093;DHT22;7123;49.468;10.992;2023-11-19T05:58:40;7.60;99.90
14093;DHT22;7123;49.468;10.992;2023-11-19T06:01:06;7.60;99.90
14093;DHT22;7123;49.468;10.992;2023-11-19T06:03:35;7.60;99.90
14093;DHT22;7123;49.468;10.992;2023-11-19T06:06:02;7.60;99.90
14093;DHT22;7123;49.468;10.992;2023-11-19T06:08:28;7.70;99.90
14093;DHT22;7123;49.468;10.992;2023-11-19T06:10:57;7.60;99.90
14093;DHT22;7123;49.468;10.992;2023-11-19T06:13:24;7.70;99.90
14093;DHT22;7123;49.468;10.992;2023-11-19T06:15:52;7.70;99.90
14093;DHT22;7123;49.468;10.992;2023-11-19T06:18:19;7.70;99.90
14093;DHT22;7123;49.468;10.992;2023-11-19T06:20:47;7.80;99.90
14093;DHT22;7123;49.468;10.992;2023-11-19T06:23:14;7.80;99.90
14093;DHT22;7123;49.468;10.992;2023-11-19T06:25:40;7.80;99.90
14093;DHT22;7123;49.468;10.992;2023-11-19T06:28:08;7.80;99.90
14093;DHT22;7123;49.468;10.992;2023-11-19T06:30:35;7.90;99.90
14093;DHT22;7123;49.468;10.992;2023-11-19T06:33:02;7.90;99.90
14093;DHT22;7123;49.468;10.992;2023-11-19T06:35:30;7.90;99.90
14093;DHT22;7123;49.468;10.992;2023-11-19T06:38:03;8.00;99.90
14093;DHT22;7123;49.468;10.992;2023-11-19T06:40:32;8.00;99.90
14093;DHT22;7123;49.468;10.992;2023-11-19T06:43:00;8.00;99.90
14093;DHT22;7123;49.468;10.992;2023-11-19T06:45:27;8.10;99.90
14093;DHT22;7123;49.468;10.992;2023-11-19T06:47:54;8.20;99.90
14093;DHT22;7123;49.468;10.992;2023-11-19T06:50:21;8.30;99.90
14093;DHT22;7123;49.468;10.992;2023-11-19T06:52:47;8.50;99.90
14093;DHT22;7123;49.468;10.992;2023-11-19T06:55:14;8.50;99.90
14093;DHT22;7123;49.468;10.992;2023-11-19T06:57:41;8.60;99.90
14093;DHT22;7123;49.468;10.992;2023-11-19T07:00:08;8.70;99.90
14093;DHT22;7123;49.468;10.992;2023-11-19T07:02:35;8.80;99.90
14093;DHT22;7123;49.468;10.992;2023-11-19T07:05:02;9.00;99.90
14093;DHT22;7123;49.468;10.992;2023-11-19T07:07:32;9.00;99.90
14093;DHT22;7123;49.468;10.992;2023-11-19T07:10:02;9.10;99.90
14093;DHT22;7123;49.468;10.992;2023-11-19T07:12:31;9.30;99.90
14093;DHT22;7123;49.468;10.992;2023-11-19T07:14:57;9.40;99.90
14093;DHT22;7123;49.468;10.992;2023-11-19T07:17:24;9.60;99.90
14093;DHT22;7123;49.468;10.992;2023-11-19T07:19:51;9.70;99.90
14093;DHT22;7123;49.468;10.992;2023-11-19T07:22:18;9.80;99.90
14093;DHT22;7123;49.468;10.992;2023-11-19T07:24:47;9.80;99.90
14093;DHT22;7123;49.468;10.992;2023-11-19T07:27:14;9.80;99.90
14093;DHT22;7123;49.468;10.992;2023-11-19T07:29:40;9.90;99.90
14093;DHT22;7123;49.468;10.992;2023-11-19T07:32:08;9.90;99.90
14093;DHT22;7123;49.468;10.992;2023-11-19T07:34:34;10.00;99.90
14093;DHT22;7123;49.468;10.992;2023-11-19T07:37:01;10.00;99.90
14093;DHT22;7123;49.468;10.992;2023-11-19T07:39:29;10.10;99.90
14093;DHT22;7123;49.468;10.992;2023-11-19T07:41:56;10.20;99.90
14093;DHT22;7123;49.468;10.992;2023-11-19T07:44:23;10.30;99.90
14093;DHT22;7123;49.468;10.992;2023-11-19T07:46:51;10.30;99.90
14093;DHT22;7123;49.468;10.992;2023-11-19T07:49:17;10.30;99.90
14093;DHT22;7123;49.468;10.992;2023-11-19T07:51:44;10.30;99.90
14093;DHT22;7123;49.468;10.992;2023-11-19T07:54:11;10.40;99.90
14093;DHT22;7123;49.468;10.992;2023-11-19T07:56:38;10.40;99.90
14093;DHT22;7123;49.468;10.992;2023-11-19T07:59:04;10.50;99.90
14093;DHT22;7123;49.468;10.992;2023-11-19T08:01:31;10.50;99.90
14093;DHT22;7123;49.468;10.992;2023-11-19T08:03:58;10.50;99.90
14093;DHT22;7123;49.468;10.992;2023-11-19T08:06:27;10.60;99.90
14093;DHT22;7123;49.468;10.992;2023-11-19T08:08:54;10.60;99.90
14093;DHT22;7123;49.468;10.992;2023-11-19T08:11:21;10.60;99.90
14093;DHT22;7123;49.468;10.992;2023-11-19T08:13:48;10.60;99.90
14093;DHT22;7123;49.468;10.992;2023-11-19T08:16:15;10.70;99.90
14093;DHT22;7123;49.468;10.992;2023-11-19T08:18:45;10.70;99.90
14093;DHT22;7123;49.468;10.992;2023-11-19T08:21:25;10.70;99.90
14093;DHT22;7123;49.468;10.992;2023-11-19T08:23:54;10.80;99.90
14093;DHT22;7123;49.468;10.992;2023-11-19T08:26:21;10.80;99.90
14093;DHT22;7123;49.468;10.992;2023-11-19T08:28:48;10.90;99.90
14093;DHT22;7123;49.468;10.992;2023-11-19T08:31:15;10.80;99.90
14093;DHT22;7123;49.468;10.992;2023-11-19T08:33:43;10.90;99.90
14093;DHT22;7123;49.468;10.992;2023-11-19T08:36:16;11.00;99.90
14093;DHT22;7123;49.468;10.992;2023-11-19T08:38:44;11.00;99.90
14093;DHT22;7123;49.468;10.992;2023-11-19T08:41:12;11.00;99.90
14093;DHT22;7123;49.468;10.992;2023-11-19T08:43:39;11.10;99.90
14093;DHT22;7123;49.468;10.992;2023-11-19T08:46:11;11.10;99.90
14093;DHT22;7123;49.468;10.992;2023-11-19T08:48:39;11.20;99.90
14093;DHT22;7123;49.468;10.992;2023-11-19T08:51:06;11.20;99.90
14093;DHT22;7123;49.468;10.992;2023-11-19T08:53:33;11.30;99.90
14093;DHT22;7123;49.468;10.992;2023-11-19T08:56:01;11.40;99.90
14093;DHT22;7123;49.468;10.992;2023-11-19T08:58:30;11.50;99.90
14093;DHT22;7123;49.468;10.992;2023-11-19T09:00:58;11.50;99.90
14093;DHT22;7123;49.468;10.992;2023-11-19T09:03:26;11.60;99.90
14093;DHT22;7123;49.468;10.992;2023-11-19T09:05:54;11.70;99.90
14093;DHT22;7123;49.468;10.992;2023-11-19T09:08:21;11.80;99.90
14093;DHT22;7123;49.468;10.992;2023-11-19T09:10:48;11.90;99.90
14093;DHT22;7123;49.468;10.992;2023-11-19T09:13:15;12.00;99.90
14093;DHT22;7123;49.468;10.992;2023-11-19T09:15:42;12.20;99.90
14093;DHT22;7123;49.468;10.992;2023-11-19T09:18:09;12.20;99.90
14093;DHT22;7123;49.468;10.992;2023-11-19T09:20:36;12.30;99.90
14093;DHT22;7123;49.468;10.992;2023-11-19T09:23:06;12.40;99.90
14093;DHT22;7123;49.468;10.992;2023-11-19T09:25:33;12.40;99.90
14093;DHT22;7123;49.468;10.992;2023-11-19T09:28:03;12.50;99.90
14093;DHT22;7123;49.468;10.992;2023-11-19T09:30:30;12.50;99.90
14093;DHT22;7123;49.468;10.992;2023-11-19T09:33:00;12.60;99.90
14093;DHT22;7123;49.468;10.992;2023-11-19T09:35:27;12.60;99.90
14093;DHT22;7123;49.468;10.992;2023-11-19T09:37:54;12.60;99.90
14093;DHT22;7123;49.468;10.992;2023-11-19T09:40:20;12.60;99.90
14093;DHT22;7123;49.468;10.992;2023-11-19T09:42:47;12.60;99.90
14093;DHT22;7123;49.468;10.992;2023-11-19T09:45:16;12.60;99.90
14093;DHT22;7123;49.468;10.992;2023-11-19T09:47:44;12.60;99.90
14093;DHT22;7123;49.468;10.992;2023-11-19T09:50:18;12.60;99.90
14093;DHT22;7123;49.468;10.992;2023-11-19T09:52:47;12.60;99.90
14093;DHT22;7123;49.468;10.992;2023-11-19T09:55:14;12.60;99.90
14093;DHT22;7123;49.468;10.992;2023-11-19T09:57:41;12.60;99.90
14093;DHT22;7123;49.468;10.992;2023-11-19T10:00:11;12.60;99.90
14093;DHT22;7123;49.468;10.992;2023-11-19T10:02:40;12.60;99.90
14093;DHT22;7123;49.468;10.992;2023-11-19T10:05:09;12.60;99.90
14093;DHT22;7123;49.468;10.992;2023-11-19T10:07:36;12.60;99.90
14093;DHT22;7123;49.468;10.992;2023-11-19T10:10:04;12.60;99.90
14093;DHT22;7123;49.468;10.992;2023-11-19T10:12:34;12.60;99.90
14093;DHT22;7123;49.468;10.992;2023-11-19T10:15:01;12.60;99.90
14093;DHT22;7123;49.468;10.992;2023-11-19T10:17:29;12.70;99.90
14093;DHT22;7123;49.468;10.992;2023-11-19T10:19:59;12.70;99.90
14093;DHT22;7123;49.468;10.992;2023-11-19T10:22:27;12.70;99.90
14093;DHT22;7123;49.468;10.992;2023-11-19T10:24:54;12.70;99.90
14093;DHT22;7123;49.468;10.992;2023-11-19T10:27:24;12.70;99.90
14093;DHT22;7123;49.468;10.992;2023-11-19T10:29:52;12.70;99.90
14093;DHT22;7123;49.468;10.992;2023-11-19T10:32:19;12.70;99.90
14093;DHT22;7123;49.468;10.992;2023-11-19T10:35:04;12.60;99.90
14093;DHT22;7123;49.468;10.992;2023-11-19T10:37:31;12.60;99.90
14093;DHT22;7123;49.468;10.992;2023-11-19T10:39:59;12.60;99.90
14093;DHT22;7123;49.468;10.992;2023-11-19T10:42:26;12.50;99.90
14093;DHT22;7123;49.468;10.992;2023-11-19T10:44:53;12.40;99.90
14093;DHT22;7123;49.468;10.992;2023-11-19T10:47:23;12.40;99.90
14093;DHT22;7123;49.468;10.992;2023-11-19T10:49:53;12.40;99.90
14093;DHT22;7123;49.468;10.992;2023-11-19T10:52:19;12.40;99.90
14093;DHT22;7123;49.468;10.992;2023-11-19T10:54:50;12.40;99.90
14093;DHT22;7123;49.468;10.992;2023-11-19T10:57:21;12.50;99.90
14093;DHT22;7123;49.468;10.992;2023-11-19T10:59:55;12.50;99.90
14093;DHT22;7123;49.468;10.992;2023-11-19T11:02:27;12.60;99.90
14093;DHT22;7123;49.468;10.992;2023-11-19T11:04:55;12.70;99.90
14093;DHT22;7123;49.468;10.992;2023-11-19T11:07:22;12.80;99.90
14093;DHT22;7123;49.468;10.992;2023-11-19T11:10:02;12.90;99.90
14093;DHT22;7123;49.468;10.992;2023-11-19T11:12:36;13.00;99.90
14093;DHT22;7123;49.468;10.992;2023-11-19T11:15:04;13.10;99.90
14093;DHT22;7123;49.468;10.992;2023-11-19T11:17:33;13.10;99.90
14093;DHT22;7123;49.468;10.992;2023-11-19T11:20:01;13.10;99.90
14093;DHT22;7123;49.468;10.992;2023-11-19T11:22:39;13.10;99.90
14093;DHT22;7123;49.468;10.992;2023-11-19T11:25:29;13.20;99.90
14093;DHT22;7123;49.468;10.992;2023-11-19T11:28:10;13.20;99.90
14093;DHT22;7123;49.468;10.992;2023-11-19T11:36:31;13.40;99.90
14093;DHT22;7123;49.468;10.992;2023-11-19T11:39:01;13.40;99.90
14093;DHT22;7123;49.468;10.992;2023-11-19T11:41:30;13.40;99.90
14093;DHT22;7123;49.468;10.992;2023-11-19T11:43:57;13.50;99.90
14093;DHT22;7123;49.468;10.992;2023-11-19T11:49:01;13.60;99.90
14093;DHT22;7123;49.468;10.992;2023-11-19T11:52:00;13.60;99.90
14093;DHT22;7123;49.468;10.992;2023-11-19T11:54:28;13.70;99.90
14093;DHT22;7123;49.468;10.992;2023-11-19T11:57:10;13.80;99.90
14093;DHT22;7123;49.468;10.992;2023-11-19T11:59:43;13.70;99.90
14093;DHT22;7123;49.468;10.992;2023-11-19T12:02:19;13.80;99.90
14093;DHT22;7123;49.468;10.992;2023-11-19T12:04:49;13.70;99.90
14093;DHT22;7123;49.468;10.992;2023-11-19T12:07:22;13.70;99.90
14093;DHT22;7123;49.468;10.992;2023-11-19T12:10:09;13.70;99.90
14093;DHT22;7123;49.468;10.992;2023-11-19T12:12:38;13.70;99.90
14093;DHT22;7123;49.468;10.992;2023-11-19T12:15:10;13.60;99.90
14093;DHT22;7123;49.468;10.992;2023-11-19T12:17:41;13.60;99.90
14093;DHT22;7123;49.468;10.992;2023-11-19T12:20:11;13.60;99.90
14093;DHT22;7123;49.468;10.992;2023-11-19T12:22:42;13.50;99.90
14093;DHT22;7123;49.468;10.992;2023-11-19T12:25:10;13.60;99.90
14093;DHT22;7123;49.468;10.992;2023-11-19T12:27:43;13.60;99.90
14093;DHT22;7123;49.468;10.992;2023-11-19T12:30:10;13.60;99.90
14093;DHT22;7123;49.468;10.992;2023-11-19T12:32:40;13.80;99.90
14093;DHT22;7123;49.468;10.992;2023-11-19T12:35:08;13.80;99.90
14093;DHT22;7123;49.468;10.992;2023-11-19T12:37:42;13.90;99.90
14093;DHT22;7123;49.468;10.992;2023-11-19T12:40:22;14.00;99.90
14093;DHT22;7123;49.468;10.992;2023-11-19T12:42:52;14.10;99.90
14093;DHT22;7123;49.468;10.992;2023-11-19T12:45:21;14.10;99.90
14093;DHT22;7123;49.468;10.992;2023-11-19T12:48:04;14.10;99.90
14093;DHT22;7123;49.468;10.992;2023-11-19T12:50:57;14.20;99.90
14093;DHT22;7123;49.468;10.992;2023-11-19T12:53:25;14.10;99.90
14093;DHT22;7123;49.468;10.992;2023-11-19T12:55:53;14.10;99.90
14093;DHT22;7123;49.468;10.992;2023-11-19T12:58:32;14.10;99.90
14093;DHT22;7123;49.468;10.992;2023-11-19T13:01:06;14.10;99.90
14093;DHT22;7123;49.468;10.992;2023-11-19T13:03:35;14.20;99.90
14093;DHT22;7123;49.468;10.992;2023-11-19T13:06:13;14.20;99.90
14093;DHT22;7123;49.468;10.992;2023-11-19T13:08:45;14.20;99.90
14093;DHT22;7123;49.468;10.992;2023-11-19T13:11:13;14.20;99.90
14093;DHT22;7123;49.468;10.992;2023-11-19T13:13:57;14.30;99.90
14093;DHT22;7123;49.468;10.992;2023-11-19T13:16:24;14.30;99.90
14093;DHT22;7123;49.468;10.992;2023-11-19T13:18:52;14.40;99.90
14093;DHT22;7123;49.468;10.992;2023-11-19T13:21:19;14.30;99.90
14093;DHT22;7123;49.468;10.992;2023-11-19T13:23:46;14.30;99.90
14093;DHT22;7123;49.468;10.992;2023-11-19T13:26:13;14.30;99.90
14093;DHT22;7123;49.468;10.992;2023-11-19T13:28:39;14.40;99.90
14093;DHT22;7123;49.468;10.992;2023-11-19T13:31:06;14.50;99.90
14093;DHT22;7123;49.468;10.992;2023-11-19T13:33:34;14.50;99.90
14093;DHT22;7123;49.468;10.992;2023-11-19T13:36:02;14.60;99.90
14093;DHT22;7123;49.468;10.992;2023-11-19T13:38:33;14.70;99.90
14093;DHT22;7123;49.468;10.992;2023-11-19T13:41:00;14.80;99.90
14093;DHT22;7123;49.468;10.992;2023-11-19T13:43:27;14.90;99.90
14093;DHT22;7123;49.468;10.992;2023-11-19T13:45:55;14.90;99.90
14093;DHT22;7123;49.468;10.992;2023-11-19T13:48:22;14.90;99.90
14093;DHT22;7123;49.468;10.992;2023-11-19T13:50:49;14.80;99.90
14093;DHT22;7123;49.468;10.992;2023-11-19T13:53:16;14.80;99.90
14093;DHT22;7123;49.468;10.992;2023-11-19T13:55:43;14.60;99.90
14093;DHT22;7123;49.468;10.992;2023-11-19T13:58:10;14.50;99.90
14093;DHT22;7123;49.468;10.992;2023-11-19T14:00:37;14.40;99.90
14093;DHT22;7123;49.468;10.992;2023-11-19T14:03:04;14.40;99.90
14093;DHT22;7123;49.468;10.992;2023-11-19T14:05:31;14.40;99.90
14093;DHT22;7123;49.468;10.992;2023-11-19T14:08:01;14.20;99.90
14093;DHT22;7123;49.468;10.992;2023-11-19T14:10:30;14.30;99.90
14093;DHT22;7123;49.468;10.992;2023-11-19T14:12:57;14.40;99.90
14093;DHT22;7123;49.468;10.992;2023-11-19T14:15:25;14.40;99.90
14093;DHT22;7123;49.468;10.992;2023-11-19T14:17:51;14.50;99.90
14093;DHT22;7123;49.468;10.992;2023-11-19T14:20:18;14.50;99.90
14093;DHT22;7123;49.468;10.992;2023-11-19T14:22:45;14.50;99.90
14093;DHT22;7123;49.468;10.992;2023-11-19T14:25:15;14.50;99.90
14093;DHT22;7123;49.468;10.992;2023-11-19T14:27:43;14.60;99.90
14093;DHT22;7123;49.468;10.992;2023-11-19T14:30:12;14.60;99.90
14093;DHT22;7123;49.468;10.992;2023-11-19T14:32:41;14.60;99.90
14093;DHT22;7123;49.468;10.992;2023-11-19T14:35:12;14.50;99.90
14093;DHT22;7123;49.468;10.992;2023-11-19T14:37:39;14.60;99.90
14093;DHT22;7123;49.468;10.992;2023-11-19T14:40:06;14.60;99.90
14093;DHT22;7123;49.468;10.992;2023-11-19T14:42:37;14.70;99.90
14093;DHT22;7123;49.468;10.992;2023-11-19T14:45:06;14.70;99.90
14093;DHT22;7123;49.468;10.992;2023-11-19T14:47:33;14.70;99.90
14093;DHT22;7123;49.468;10.992;2023-11-19T14:50:00;14.70;99.90
14093;DHT22;7123;49.468;10.992;2023-11-19T14:52:27;14.70;99.90
14093;DHT22;7123;49.468;10.992;2023-11-19T14:54:54;14.80;99.90
14093;DHT22;7123;49.468;10.992;2023-11-19T14:57:23;14.80;99.90
14093;DHT22;7123;49.468;10.992;2023-11-19T14:59:50;14.80;99.90
14093;DHT22;7123;49.468;10.992;2023-11-19T15:02:16;14.70;99.90
14093;DHT22;7123;49.468;10.992;2023-11-19T15:04:44;14.50;99.90
14093;DHT22;7123;49.468;10.992;2023-11-19T15:07:11;14.40;99.90
14093;DHT22;7123;49.468;10.992;2023-11-19T15:09:38;14.20;99.90
14093;DHT22;7123;49.468;10.992;2023-11-19T15:12:05;14.10;99.90
14093;DHT22;7123;49.468;10.992;2023-11-19T15:14:32;14.00;99.90
14093;DHT22;7123;49.468;10.992;2023-11-19T15:16:59;13.90;99.90
14093;DHT22;7123;49.468;10.992;2023-11-19T15:19:26;13.80;99.90
14093;DHT22;7123;49.468;10.992;2023-11-19T15:21:53;13.80;99.90
14093;DHT22;7123;49.468;10.992;2023-11-19T15:24:21;13.70;99.90
14093;DHT22;7123;49.468;10.992;2023-11-19T15:26:48;13.60;99.90
14093;DHT22;7123;49.468;10.992;2023-11-19T15:29:15;13.60;99.90
14093;DHT22;7123;49.468;10.992;2023-11-19T15:31:42;13.60;99.90
14093;DHT22;7123;49.468;10.992;2023-11-19T15:34:09;13.60;99.90
14093;DHT22;7123;49.468;10.992;2023-11-19T15:36:36;13.60;99.90
14093;DHT22;7123;49.468;10.992;2023-11-19T15:39:03;13.60;99.90
14093;DHT22;7123;49.468;10.992;2023-11-19T15:41:31;13.50;99.90
14093;DHT22;7123;49.468;10.992;2023-11-19T15:43:58;13.50;99.90
14093;DHT22;7123;49.468;10.992;2023-11-19T15:46:25;13.40;99.90
14093;DHT22;7123;49.468;10.992;2023-11-19T15:48:52;13.40;99.90
14093;DHT22;7123;49.468;10.992;2023-11-19T15:51:18;13.30;99.90
14093;DHT22;7123;49.468;10.992;2023-11-19T15:53:45;13.30;99.90
14093;DHT22;7123;49.468;10.992;2023-11-19T15:56:13;13.30;99.90